createdAt,value
2024-02-17T00:00:00.302Z,94.90
2024-02-17T00:02:04.472Z,95.00
2024-02-17T00:04:06.832Z,95.10
2024-02-17T00:06:09.240Z,94.90
2024-02-17T00:08:11.367Z,94.60
2024-02-17T00:10:13.469Z,94.80
2024-02-17T00:12:15.675Z,94.80
2024-02-17T00:14:19.616Z,94.80
2024-02-17T00:16:21.645Z,94.70
2024-02-17T00:18:29.620Z,95.10
2024-02-17T00:20:32.230Z,94.80
2024-02-17T00:22:34.436Z,94.50
2024-02-17T00:24:36.543Z,94.70
2024-02-17T00:26:39.637Z,94.40
2024-02-17T00:28:41.618Z,94.70
2024-02-17T00:30:44.290Z,95.20
2024-02-17T00:32:46.445Z,95.10
2024-02-17T00:34:49.857Z,95.00
2024-02-17T00:36:52.093Z,95.20
2024-02-17T00:38:54.252Z,94.50
2024-02-17T00:40:57.595Z,94.60
2024-02-17T00:42:59.550Z,94.40
2024-02-17T00:45:01.747Z,94.40
2024-02-17T00:47:04.181Z,94.00
2024-02-17T00:49:06.650Z,94.70
2024-02-17T00:51:13.282Z,93.70
2024-02-17T00:53:16.019Z,93.70
2024-02-17T00:55:18.635Z,93.70
2024-02-17T00:57:20.674Z,92.80
2024-02-17T00:59:22.968Z,93.20
2024-02-17T01:01:32.921Z,93.70
2024-02-17T01:03:40.618Z,94.10
2024-02-17T01:05:44.052Z,93.70
2024-02-17T01:07:47.788Z,93.90
2024-02-17T01:09:50.007Z,93.60
2024-02-17T01:11:53.091Z,93.80
2024-02-17T01:13:55.121Z,94.30
2024-02-17T01:15:59.507Z,94.60
2024-02-17T01:18:01.708Z,93.90
2024-02-17T01:20:04.842Z,93.70
2024-02-17T01:22:06.989Z,93.70
2024-02-17T01:24:10.896Z,93.80
2024-02-17T01:26:13.313Z,93.40
2024-02-17T01:28:15.517Z,94.10
2024-02-17T01:30:18.127Z,93.50
2024-02-17T01:32:20.251Z,92.80
2024-02-17T01:34:22.565Z,93.20
2024-02-17T01:36:24.565Z,93.60
2024-02-17T01:38:26.579Z,93.50
2024-02-17T01:40:33.239Z,93.70
2024-02-17T01:42:35.570Z,93.10
2024-02-17T01:44:38.161Z,93.20
2024-02-17T01:46:40.240Z,93.40
2024-02-17T01:48:43.641Z,93.50
2024-02-17T01:50:46.153Z,92.70
2024-02-17T01:52:48.619Z,93.00
2024-02-17T01:54:51.273Z,92.70
2024-02-17T01:56:56.544Z,92.80
2024-02-17T01:58:59.064Z,92.80
2024-02-17T02:01:01.638Z,93.30
2024-02-17T02:03:05.321Z,93.00
2024-02-17T02:05:07.637Z,93.10
2024-02-17T02:07:10.048Z,93.50
2024-02-17T02:09:15.269Z,93.10
2024-02-17T02:11:19.129Z,92.90
2024-02-17T02:13:22.626Z,93.70
2024-02-17T02:15:33.050Z,93.60
2024-02-17T02:17:43.085Z,93.70
2024-02-17T02:19:45.325Z,92.50
2024-02-17T02:21:47.426Z,93.30
2024-02-17T02:23:49.640Z,93.10
2024-02-17T02:25:53.857Z,93.10
2024-02-17T02:27:56.740Z,92.80
2024-02-17T02:30:00.177Z,93.70
2024-02-17T02:32:02.309Z,92.40
2024-02-17T02:34:04.710Z,93.00
2024-02-17T02:36:07.690Z,93.30
2024-02-17T02:38:09.990Z,93.20
2024-02-17T02:40:12.500Z,93.10
2024-02-17T02:42:16.015Z,93.00
2024-02-17T02:44:18.188Z,93.60
2024-02-17T02:46:20.221Z,93.10
2024-02-17T02:48:22.432Z,92.80
2024-02-17T02:50:25.601Z,92.50
2024-02-17T02:52:28.376Z,93.00
2024-02-17T02:54:30.484Z,93.30
2024-02-17T02:56:32.533Z,93.30
2024-02-17T02:58:36.032Z,93.50
2024-02-17T03:00:38.415Z,93.00
2024-02-17T03:02:40.529Z,92.90
2024-02-17T03:04:43.191Z,93.60
2024-02-17T03:06:45.390Z,92.70
2024-02-17T03:08:47.413Z,93.20
2024-02-17T03:10:49.411Z,93.30
2024-02-17T03:12:51.782Z,93.10
2024-02-17T03:14:55.168Z,93.20
2024-02-17T03:16:57.558Z,92.70
2024-02-17T03:18:59.665Z,93.20
2024-02-17T03:21:02.021Z,92.70
2024-02-17T03:23:04.284Z,93.10
2024-02-17T03:25:07.060Z,93.20
2024-02-17T03:27:09.184Z,92.90
2024-02-17T03:29:11.261Z,93.30
2024-02-17T03:31:15.024Z,93.00
2024-02-17T03:33:17.234Z,93.10
2024-02-17T03:35:19.427Z,93.50
2024-02-17T03:37:22.678Z,93.50
2024-02-17T03:39:25.038Z,93.70
2024-02-17T03:41:29.339Z,93.40
2024-02-17T03:43:31.321Z,93.60
2024-02-17T03:45:33.294Z,93.50
2024-02-17T03:47:37.060Z,93.70
2024-02-17T03:49:39.342Z,93.60
2024-02-17T03:51:41.560Z,93.40
2024-02-17T03:53:43.917Z,93.10
2024-02-17T03:55:45.948Z,93.40
2024-02-17T03:57:48.116Z,92.90
2024-02-17T03:59:50.211Z,93.20
2024-02-17T04:01:56.444Z,93.50
2024-02-17T04:04:04.602Z,93.30
2024-02-17T04:06:07.432Z,93.90
2024-02-17T04:08:09.678Z,93.90
2024-02-17T04:10:11.832Z,93.60
2024-02-17T04:12:14.370Z,93.70
2024-02-17T04:14:16.455Z,93.50
2024-02-17T04:16:18.490Z,94.20
2024-02-17T04:18:20.773Z,93.60
2024-02-17T04:20:24.782Z,93.60
2024-02-17T04:22:26.873Z,93.80
2024-02-17T04:24:29.171Z,93.80
2024-02-17T04:26:31.280Z,93.60
2024-02-17T04:28:34.215Z,93.40
2024-02-17T04:30:36.557Z,93.70
2024-02-17T04:32:39.062Z,93.60
2024-02-17T04:34:41.401Z,93.00
2024-02-17T04:36:45.033Z,93.30
2024-02-17T04:38:47.438Z,93.30
2024-02-17T04:40:49.508Z,94.20
2024-02-17T04:42:53.396Z,93.60
2024-02-17T04:44:56.458Z,93.40
2024-02-17T04:46:59.816Z,93.30
2024-02-17T04:49:01.982Z,93.50
2024-02-17T04:51:04.555Z,93.20
2024-02-17T04:53:08.040Z,94.00
2024-02-17T04:55:10.411Z,93.60
2024-02-17T04:57:12.481Z,93.50
2024-02-17T04:59:14.452Z,93.50
2024-02-17T05:01:17.196Z,93.80
2024-02-17T05:03:19.474Z,93.20
2024-02-17T05:05:21.919Z,93.10
2024-02-17T05:07:24.172Z,92.90
2024-02-17T05:09:27.605Z,93.20
2024-02-17T05:11:29.761Z,93.20
2024-02-17T05:13:31.871Z,93.20
2024-02-17T05:15:35.454Z,93.10
2024-02-17T05:17:37.738Z,93.40
2024-02-17T05:19:40.070Z,93.20
2024-02-17T05:21:43.811Z,93.10
2024-02-17T05:23:46.131Z,92.80
2024-02-17T05:25:52.457Z,92.80
2024-02-17T05:27:54.675Z,93.40
2024-02-17T05:29:56.712Z,93.20
2024-02-17T05:31:58.861Z,93.00
2024-02-17T05:34:01.364Z,93.10
2024-02-17T05:36:03.695Z,93.10
2024-02-17T05:38:05.683Z,93.40
2024-02-17T05:40:13.135Z,93.60
2024-02-17T05:42:16.769Z,93.00
2024-02-17T05:44:18.810Z,93.60
2024-02-17T05:46:20.857Z,93.70
2024-02-17T05:48:22.997Z,93.60
2024-02-17T05:50:25.698Z,93.80
2024-02-17T05:52:27.772Z,93.60
2024-02-17T05:54:29.791Z,93.70
2024-02-17T05:56:31.957Z,94.20
2024-02-17T05:58:35.949Z,93.80
2024-02-17T06:00:38.103Z,94.30
2024-02-17T06:02:40.391Z,94.10
2024-02-17T06:04:42.446Z,93.70
2024-02-17T06:06:45.236Z,93.70
2024-02-17T06:08:47.262Z,93.50
2024-02-17T06:10:49.431Z,94.20
2024-02-17T06:12:51.999Z,93.10
2024-02-17T06:14:55.667Z,93.50
2024-02-17T06:16:58.045Z,93.60
2024-02-17T06:19:18.760Z,93.70
2024-02-17T06:21:21.723Z,93.60
2024-02-17T06:23:23.757Z,93.50
2024-02-17T06:25:25.880Z,93.40
2024-02-17T06:27:27.907Z,93.70
2024-02-17T06:29:30.913Z,92.70
2024-02-17T06:31:37.089Z,92.80
2024-02-17T06:33:41.717Z,93.20
2024-02-17T06:35:43.724Z,93.20
2024-02-17T06:37:46.132Z,93.90
2024-02-17T06:39:48.290Z,93.30
2024-02-17T06:41:50.570Z,93.30
2024-02-17T06:43:52.576Z,93.40
2024-02-17T06:45:54.755Z,93.50
2024-02-17T06:47:58.876Z,93.70
2024-02-17T06:50:01.066Z,93.80
2024-02-17T06:52:06.338Z,94.00
2024-02-17T06:54:08.224Z,93.50
2024-02-17T06:56:10.730Z,93.60
2024-02-17T06:58:12.793Z,94.00
2024-02-17T07:00:17.523Z,93.90
2024-02-17T07:02:25.140Z,93.80
2024-02-17T07:04:29.378Z,93.60
2024-02-17T07:06:31.691Z,94.00
2024-02-17T07:08:34.143Z,93.70
2024-02-17T07:10:37.116Z,94.30
2024-02-17T07:12:39.396Z,93.60
2024-02-17T07:14:41.688Z,93.40
2024-02-17T07:16:44.155Z,93.60
2024-02-17T07:18:46.539Z,94.00
2024-02-17T07:20:53.329Z,94.20
2024-02-17T07:22:57.457Z,93.90
2024-02-17T07:24:59.452Z,94.40
2024-02-17T07:27:01.403Z,94.70
2024-02-17T07:29:03.749Z,94.40
2024-02-17T07:31:07.251Z,94.70
2024-02-17T07:33:10.663Z,94.50
2024-02-17T07:35:13.029Z,93.80
2024-02-17T07:37:16.404Z,93.70
2024-02-17T07:39:19.153Z,94.30
2024-02-17T07:41:21.236Z,93.90
2024-02-17T07:43:23.371Z,93.30
2024-02-17T07:45:25.478Z,93.70
2024-02-17T07:47:27.549Z,93.90
2024-02-17T07:49:29.901Z,94.30
2024-02-17T07:51:32.604Z,94.60
2024-02-17T07:53:35.964Z,94.20
2024-02-17T07:55:37.916Z,93.80
2024-02-17T07:57:40.117Z,93.20
2024-02-17T07:59:42.120Z,93.40
2024-02-17T08:01:44.156Z,93.00
2024-02-17T08:03:46.307Z,93.50
2024-02-17T08:05:49.548Z,93.90
2024-02-17T08:07:52.003Z,93.40
2024-02-17T08:09:55.573Z,92.80
2024-02-17T08:11:57.861Z,94.00
2024-02-17T08:13:59.856Z,93.20
2024-02-17T08:16:02.038Z,93.40
2024-02-17T08:18:04.638Z,93.30
2024-02-17T08:20:07.495Z,92.90
2024-02-17T08:22:09.557Z,93.70
2024-02-17T08:24:12.035Z,93.10
2024-02-17T08:26:18.664Z,92.80
2024-02-17T08:28:20.844Z,92.90
2024-02-17T08:30:22.853Z,92.90
2024-02-17T08:32:24.938Z,92.30
2024-02-17T08:34:27.311Z,92.40
2024-02-17T08:36:29.652Z,92.50
2024-02-17T08:38:31.656Z,92.00
2024-02-17T08:40:33.649Z,92.00
2024-02-17T08:42:37.152Z,92.10
2024-02-17T08:44:39.256Z,92.00
2024-02-17T08:46:41.488Z,92.10
2024-02-17T08:48:43.623Z,91.50
2024-02-17T08:50:45.747Z,92.20
2024-02-17T08:52:48.176Z,91.80
2024-02-17T08:54:50.538Z,91.90
2024-02-17T08:56:52.660Z,92.50
2024-02-17T08:58:55.941Z,92.40
2024-02-17T09:00:59.205Z,92.90
2024-02-17T09:03:01.245Z,92.20
2024-02-17T09:05:07.464Z,92.40
2024-02-17T09:07:09.509Z,92.60
2024-02-17T09:09:11.816Z,91.40
2024-02-17T09:11:15.603Z,92.00
2024-02-17T09:13:19.090Z,91.70
2024-02-17T09:15:22.658Z,91.70
2024-02-17T09:17:25.421Z,91.50
2024-02-17T09:19:27.547Z,91.70
2024-02-17T09:21:30.167Z,92.60
2024-02-17T09:23:32.276Z,91.60
2024-02-17T09:25:34.743Z,91.40
2024-02-17T09:27:36.821Z,91.00
2024-02-17T09:29:38.889Z,90.80
2024-02-17T09:31:42.434Z,91.80
2024-02-17T09:33:44.585Z,91.50
2024-02-17T09:35:47.105Z,91.40
2024-02-17T09:37:49.284Z,91.30
2024-02-17T09:39:51.467Z,91.50
2024-02-17T09:41:54.780Z,91.00
2024-02-17T09:43:56.824Z,91.90
2024-02-17T09:45:59.184Z,91.80
2024-02-17T09:48:03.440Z,91.60
2024-02-17T09:50:07.249Z,91.60
2024-02-17T09:52:10.820Z,91.60
2024-02-17T09:54:16.624Z,91.00
2024-02-17T09:56:20.866Z,90.70
2024-02-17T09:58:24.344Z,90.80
2024-02-17T10:00:26.426Z,90.80
2024-02-17T10:02:29.791Z,90.90
2024-02-17T10:04:34.030Z,90.70
2024-02-17T10:06:36.475Z,91.50
2024-02-17T10:08:39.894Z,91.60
2024-02-17T10:10:44.321Z,91.50
2024-02-17T10:12:51.964Z,91.20
2024-02-17T10:14:54.333Z,91.30
2024-02-17T10:17:00.142Z,91.40
2024-02-17T10:19:07.266Z,90.90
2024-02-17T10:21:11.819Z,90.90
2024-02-17T10:23:14.001Z,90.90
2024-02-17T10:25:16.761Z,90.60
2024-02-17T10:27:19.346Z,91.00
2024-02-17T10:29:21.585Z,91.10
2024-02-17T10:31:23.821Z,91.10
2024-02-17T10:33:26.406Z,90.80
2024-02-17T10:35:30.834Z,90.80
2024-02-17T10:37:36.498Z,90.60
2024-02-17T10:39:38.621Z,90.30
2024-02-17T10:41:40.726Z,90.30
2024-02-17T10:43:45.308Z,90.50
2024-02-17T10:45:54.316Z,90.10
2024-02-17T10:48:03.680Z,88.80
2024-02-17T10:50:14.597Z,89.30
2024-02-17T10:52:21.975Z,88.80
2024-02-17T10:54:33.322Z,88.70
2024-02-17T10:56:36.067Z,87.70
2024-02-17T10:58:41.169Z,88.80
2024-02-17T11:00:46.968Z,89.40
2024-02-17T11:02:51.781Z,89.50
2024-02-17T11:04:57.368Z,88.00
2024-02-17T11:07:01.653Z,88.10
2024-02-17T11:09:04.866Z,88.50
2024-02-17T11:11:26.529Z,89.50
2024-02-17T11:13:28.768Z,88.70
2024-02-17T11:15:33.810Z,89.50
2024-02-17T11:17:41.900Z,88.60
2024-02-17T11:19:48.981Z,89.40
2024-02-17T11:21:56.887Z,89.10
2024-02-17T11:24:00.352Z,88.10
2024-02-17T11:26:07.413Z,88.50
2024-02-17T11:28:20.880Z,88.50
2024-02-17T11:30:23.719Z,88.10
2024-02-17T11:32:28.501Z,89.50
2024-02-17T11:34:31.417Z,88.30
2024-02-17T11:36:35.140Z,88.20
2024-02-17T11:38:38.074Z,87.40
2024-02-17T11:40:40.848Z,87.20
2024-02-17T11:42:43.924Z,87.00
2024-02-17T11:44:47.690Z,87.60
2024-02-17T11:46:49.740Z,87.10
2024-02-17T11:48:52.415Z,87.30
2024-02-17T11:51:03.229Z,87.90
2024-02-17T11:53:06.353Z,87.20
2024-02-17T11:55:09.817Z,86.80
2024-02-17T11:57:12.851Z,86.80
2024-02-17T11:59:16.118Z,86.40
2024-02-17T12:01:20.034Z,86.80
2024-02-17T12:03:22.124Z,86.70
2024-02-17T12:05:24.693Z,87.60
2024-02-17T12:07:30.862Z,88.70
2024-02-17T12:09:34.020Z,87.40
2024-02-17T12:11:36.326Z,87.30
2024-02-17T12:13:38.613Z,87.50
2024-02-17T12:15:40.701Z,88.20
2024-02-17T12:17:45.861Z,86.80
2024-02-17T12:19:48.678Z,87.70
2024-02-17T12:21:51.277Z,86.80
2024-02-17T12:23:53.647Z,87.30
2024-02-17T12:25:56.771Z,87.00
2024-02-17T12:27:59.339Z,87.90
2024-02-17T12:30:01.588Z,87.30
2024-02-17T12:32:03.815Z,86.60
2024-02-17T12:34:07.479Z,86.00
2024-02-17T12:36:15.808Z,87.00
2024-02-17T12:38:20.505Z,86.90
2024-02-17T12:40:23.221Z,86.90
2024-02-17T12:42:26.030Z,88.50
2024-02-17T12:44:28.751Z,87.90
2024-02-17T12:46:31.343Z,87.40
2024-02-17T12:48:33.520Z,87.90
2024-02-17T12:50:39.319Z,87.40
2024-02-17T12:52:41.582Z,87.40
2024-02-17T12:54:44.921Z,86.00
2024-02-17T12:56:47.362Z,87.00
2024-02-17T12:58:49.669Z,87.70
2024-02-17T13:00:53.505Z,87.90
2024-02-17T13:02:55.774Z,86.80
2024-02-17T13:05:01.317Z,87.00
2024-02-17T13:07:08.053Z,87.20
2024-02-17T13:09:10.220Z,86.10
2024-02-17T13:11:12.322Z,86.50
2024-02-17T13:13:14.466Z,86.20
2024-02-17T13:15:21.355Z,85.60
2024-02-17T13:17:23.445Z,87.10
2024-02-17T13:19:25.605Z,86.80
2024-02-17T13:21:28.865Z,87.10
2024-02-17T13:23:32.265Z,87.50
2024-02-17T13:25:34.463Z,87.70
2024-02-17T13:27:41.333Z,86.20
2024-02-17T13:29:43.341Z,87.90
2024-02-17T13:31:46.688Z,86.70
2024-02-17T13:33:49.635Z,87.80
2024-02-17T13:35:52.144Z,87.30
2024-02-17T13:37:54.260Z,87.80
2024-02-17T13:39:57.806Z,88.00
2024-02-17T13:42:00.737Z,86.40
2024-02-17T13:44:03.270Z,87.10
2024-02-17T13:46:05.380Z,86.60
2024-02-17T13:48:09.879Z,86.40
2024-02-17T13:50:14.509Z,86.20
2024-02-17T13:52:16.588Z,87.30
2024-02-17T13:54:20.464Z,87.50
2024-02-17T13:56:23.917Z,87.00
2024-02-17T13:58:26.266Z,87.40
2024-02-17T14:00:29.519Z,85.90
2024-02-17T14:02:32.163Z,86.50
2024-02-17T14:04:36.298Z,85.50
2024-02-17T14:06:38.481Z,86.20
2024-02-17T14:08:40.551Z,85.60
2024-02-17T14:10:42.659Z,85.60
2024-02-17T14:12:46.791Z,86.40
2024-02-17T14:14:49.007Z,86.40
2024-02-17T14:16:51.048Z,86.80
2024-02-17T14:18:53.290Z,87.30
2024-02-17T14:21:00.629Z,86.40
2024-02-17T14:23:03.415Z,85.90
2024-02-17T14:25:06.789Z,86.30
2024-02-17T14:27:09.368Z,85.80
2024-02-17T14:29:15.882Z,86.10
2024-02-17T14:31:18.083Z,87.90
2024-02-17T14:33:21.021Z,86.40
2024-02-17T14:35:23.271Z,86.60
2024-02-17T14:37:25.373Z,86.30
2024-02-17T14:39:27.625Z,87.00
2024-02-17T14:41:30.042Z,87.10
2024-02-17T14:43:32.777Z,86.90
2024-02-17T14:45:36.965Z,85.40
2024-02-17T14:47:39.884Z,86.30
2024-02-17T14:49:42.816Z,85.90
2024-02-17T14:51:47.337Z,86.40
2024-02-17T14:53:49.349Z,85.70
2024-02-17T14:55:52.915Z,85.50
2024-02-17T14:57:55.004Z,86.10
2024-02-17T14:59:57.460Z,86.40
2024-02-17T15:02:00.808Z,85.70
2024-02-17T15:04:03.273Z,86.30
2024-02-17T15:06:05.879Z,84.80
2024-02-17T15:08:08.199Z,85.30
2024-02-17T15:10:10.834Z,84.60
2024-02-17T15:12:13.164Z,85.40
2024-02-17T15:14:15.223Z,85.70
2024-02-17T15:16:17.625Z,87.00
2024-02-17T15:18:26.519Z,86.50
2024-02-17T15:20:29.058Z,86.50
2024-02-17T15:22:31.050Z,85.70
2024-02-17T15:24:33.303Z,86.70
2024-02-17T15:26:35.472Z,85.00
2024-02-17T15:28:37.712Z,86.00
2024-02-17T15:30:43.398Z,85.20
2024-02-17T15:32:45.480Z,85.50
2024-02-17T15:34:49.567Z,86.70
2024-02-17T15:36:51.779Z,87.20
2024-02-17T15:38:54.859Z,86.50
2024-02-17T15:40:59.461Z,87.00
2024-02-17T15:43:01.638Z,86.10
2024-02-17T15:45:04.177Z,88.50
2024-02-17T15:47:06.263Z,87.30
2024-02-17T15:49:08.955Z,86.60
2024-02-17T15:51:13.316Z,86.60
2024-02-17T15:53:15.349Z,86.40
2024-02-17T15:55:17.862Z,86.50
2024-02-17T15:57:20.069Z,86.30
2024-02-17T15:59:23.171Z,86.60
2024-02-17T16:01:25.468Z,88.00
2024-02-17T16:03:31.022Z,87.00
2024-02-17T16:05:34.354Z,87.00
2024-02-17T16:07:37.869Z,86.90
2024-02-17T16:09:39.957Z,87.90
2024-02-17T16:11:42.306Z,88.30
2024-02-17T16:13:48.952Z,89.00
2024-02-17T16:15:51.188Z,88.60
2024-02-17T16:17:54.035Z,88.70
2024-02-17T16:19:56.585Z,88.70
2024-02-17T16:21:58.722Z,87.30
2024-02-17T16:24:02.344Z,88.50
2024-02-17T16:26:04.867Z,88.90
2024-02-17T16:28:06.984Z,88.60
2024-02-17T16:30:09.718Z,89.50
2024-02-17T16:32:14.882Z,89.50
2024-02-17T16:34:17.332Z,88.00
2024-02-17T16:36:19.706Z,88.10
2024-02-17T16:38:22.033Z,88.60
2024-02-17T16:40:25.571Z,89.40
2024-02-17T16:42:27.917Z,88.50
2024-02-17T16:44:30.554Z,88.60
2024-02-17T16:46:33.020Z,88.40
2024-02-17T16:48:35.767Z,89.50
2024-02-17T16:50:37.941Z,89.30
2024-02-17T16:52:40.022Z,89.20
2024-02-17T16:54:42.095Z,90.00
2024-02-17T16:56:46.993Z,89.50
2024-02-17T16:58:49.007Z,89.80
2024-02-17T17:00:51.093Z,90.10
2024-02-17T17:02:53.201Z,90.00
2024-02-17T17:04:57.971Z,90.20
2024-02-17T17:07:01.077Z,90.40
2024-02-17T17:09:04.861Z,90.10
2024-02-17T17:11:07.147Z,90.50
2024-02-17T17:13:10.562Z,90.60
2024-02-17T17:15:12.762Z,90.00
2024-02-17T17:17:14.973Z,90.40
2024-02-17T17:19:17.215Z,90.60
2024-02-17T17:21:19.742Z,90.30
2024-02-17T17:23:22.883Z,90.20
2024-02-17T17:25:24.969Z,90.20
2024-02-17T17:27:27.117Z,90.30
2024-02-17T17:33:44.765Z,90.60
2024-02-17T17:35:47.158Z,90.70
2024-02-17T17:37:49.400Z,90.90
2024-02-17T17:39:53.151Z,91.20
2024-02-17T17:41:55.362Z,91.00
2024-02-17T17:43:57.760Z,91.00
2024-02-17T17:48:08.582Z,91.20
2024-02-17T17:50:11.317Z,91.30
2024-02-17T17:52:13.702Z,91.40
2024-02-17T17:54:15.949Z,91.60
2024-02-17T17:58:25.263Z,91.60
2024-02-17T18:00:28.885Z,91.70
2024-02-17T18:02:33.540Z,91.70
2024-02-17T18:04:36.191Z,91.60
2024-02-17T18:06:38.508Z,91.90
2024-02-17T18:08:40.624Z,92.10
2024-02-17T18:10:42.805Z,92.00
2024-02-17T18:12:44.827Z,91.80
2024-02-17T18:14:47.328Z,92.10
2024-02-17T18:16:49.298Z,92.10
2024-02-17T18:18:52.809Z,92.00
2024-02-17T18:20:56.275Z,92.20
2024-02-17T18:22:58.433Z,92.30
2024-02-17T18:25:00.590Z,92.30
2024-02-17T18:27:02.820Z,92.40
2024-02-17T18:29:04.895Z,92.40
2024-02-17T18:31:07.245Z,92.60
2024-02-17T18:33:10.491Z,92.50
2024-02-17T18:35:13.967Z,92.60
2024-02-17T18:37:16.257Z,92.60
2024-02-17T18:39:18.442Z,92.70
2024-02-17T18:41:20.606Z,92.70
2024-02-17T18:43:22.749Z,92.70
2024-02-17T18:45:25.072Z,92.60
2024-02-17T18:47:29.189Z,92.60
2024-02-17T18:49:31.493Z,92.60
2024-02-17T18:51:36.006Z,92.60
2024-02-17T18:53:38.298Z,92.70
2024-02-17T18:55:40.408Z,92.80
2024-02-17T18:57:42.557Z,92.80
2024-02-17T18:59:44.767Z,93.10
2024-02-17T19:01:47.217Z,93.50
2024-02-17T19:03:51.597Z,93.10
2024-02-17T19:05:53.918Z,93.20
2024-02-17T19:07:57.345Z,93.20
2024-02-17T19:09:59.448Z,93.70
2024-02-17T19:12:01.664Z,93.50
2024-02-17T19:14:04.011Z,93.40
2024-02-17T19:16:08.189Z,93.50
2024-02-17T19:18:10.276Z,93.70
2024-02-17T19:20:13.872Z,93.70
2024-02-17T19:22:16.189Z,93.90
2024-02-17T19:24:20.982Z,93.80
2024-02-17T19:26:23.039Z,93.90
2024-02-17T19:28:25.124Z,93.80
2024-02-17T19:30:27.251Z,93.90
2024-02-17T19:32:29.364Z,94.10
2024-02-17T19:34:31.478Z,94.10
2024-02-17T19:36:33.575Z,94.10
2024-02-17T19:38:35.971Z,94.00
2024-02-17T19:40:39.388Z,94.20
2024-02-17T19:42:41.580Z,94.10
2024-02-17T19:44:43.787Z,93.90
2024-02-17T19:46:46.050Z,94.10
2024-02-17T19:48:48.316Z,94.40
2024-02-17T19:50:50.465Z,94.10
2024-02-17T19:52:52.846Z,94.00
2024-02-17T19:54:55.007Z,94.30
2024-02-17T19:56:58.349Z,94.50
2024-02-17T19:59:00.480Z,94.20
2024-02-17T20:01:05.386Z,94.30
2024-02-17T20:03:07.571Z,94.30
2024-02-17T20:05:10.219Z,94.40
2024-02-17T20:07:12.363Z,94.10
2024-02-17T20:09:14.657Z,94.00
2024-02-17T20:11:16.728Z,94.10
2024-02-17T20:13:22.661Z,94.00
2024-02-17T20:15:25.293Z,94.00
2024-02-17T20:17:32.521Z,93.90
2024-02-17T20:19:44.744Z,93.90
2024-02-17T20:21:47.204Z,94.00
2024-02-17T20:23:52.023Z,94.30
2024-02-17T20:25:54.175Z,93.90
2024-02-17T20:27:56.656Z,93.90
2024-02-17T20:30:00.161Z,94.00
2024-02-17T20:32:02.167Z,94.00
2024-02-17T20:34:06.759Z,94.00
2024-02-17T20:36:09.888Z,94.00
2024-02-17T20:38:11.945Z,94.00
2024-02-17T20:40:15.345Z,93.80
2024-02-17T20:42:17.509Z,93.80
2024-02-17T20:44:22.380Z,93.80
2024-02-17T20:46:25.579Z,93.90
2024-02-17T20:48:27.949Z,94.00
2024-02-17T20:50:31.709Z,94.20
2024-02-17T20:52:33.818Z,94.20
2024-02-17T20:54:36.068Z,94.40
2024-02-17T20:56:38.298Z,94.20
2024-02-17T20:58:40.322Z,94.30
2024-02-17T21:00:42.494Z,94.20
2024-02-17T21:02:45.850Z,94.70
2024-02-17T21:04:48.005Z,94.40
2024-02-17T21:06:50.191Z,94.40
2024-02-17T21:08:52.624Z,94.70
2024-02-17T21:10:55.392Z,94.40
2024-02-17T21:12:57.534Z,94.80
2024-02-17T21:14:59.721Z,94.50
2024-02-17T21:17:02.382Z,94.60
2024-02-17T21:19:06.817Z,94.80
2024-02-17T21:21:09.203Z,94.60
2024-02-17T21:23:11.220Z,94.40
2024-02-17T21:25:13.934Z,94.60
2024-02-17T21:27:16.070Z,94.70
2024-02-17T21:29:18.280Z,94.50
2024-02-17T21:31:23.246Z,94.40
2024-02-17T21:33:29.452Z,94.70
2024-02-17T21:35:32.921Z,94.50
2024-02-17T21:37:34.877Z,94.80
2024-02-17T21:39:36.920Z,94.70
2024-02-17T21:41:38.983Z,94.70
2024-02-17T21:43:41.007Z,94.50
2024-02-17T21:45:43.111Z,94.40
2024-02-17T21:47:45.588Z,94.60
2024-02-17T21:49:48.488Z,94.60
2024-02-17T21:51:51.922Z,94.60
2024-02-17T21:53:53.857Z,94.50
2024-02-17T21:55:57.249Z,94.80
2024-02-17T21:57:59.353Z,94.60
2024-02-17T22:00:01.967Z,94.70
2024-02-17T22:02:08.025Z,94.80
2024-02-17T22:04:10.826Z,94.90
2024-02-17T22:06:12.921Z,94.40
2024-02-17T22:08:16.646Z,94.80
2024-02-17T22:10:18.703Z,95.20
2024-02-17T22:12:21.977Z,94.90
2024-02-17T22:14:24.044Z,94.90
2024-02-17T22:16:26.307Z,95.00
2024-02-17T22:18:28.429Z,94.90
2024-02-17T22:20:30.491Z,95.10
2024-02-17T22:22:32.596Z,94.90
2024-02-17T22:24:38.412Z,94.70
2024-02-17T22:26:43.260Z,95.20
2024-02-17T22:28:45.770Z,95.00
2024-02-17T22:30:47.824Z,95.20
2024-02-17T22:32:50.528Z,95.10
2024-02-17T22:34:52.893Z,94.90
2024-02-17T22:36:54.972Z,95.10
2024-02-17T22:38:57.838Z,95.10
2024-02-17T22:41:01.255Z,94.90
2024-02-17T22:43:03.807Z,94.90
2024-02-17T22:45:07.305Z,94.70
2024-02-17T22:47:09.516Z,95.00
2024-02-17T22:49:11.822Z,95.10
2024-02-17T22:51:13.973Z,94.80
2024-02-17T22:53:16.181Z,95.10
2024-02-17T22:55:18.273Z,94.80
2024-02-17T22:57:22.030Z,94.70
2024-02-17T22:59:24.391Z,95.00
2024-02-17T23:01:26.559Z,94.70
2024-02-17T23:03:29.479Z,94.90
2024-02-17T23:05:31.654Z,95.10
2024-02-17T23:07:33.625Z,95.00
2024-02-17T23:09:36.183Z,94.70
2024-02-17T23:11:38.654Z,94.80
2024-02-17T23:13:42.138Z,94.70
2024-02-17T23:15:44.425Z,94.70
2024-02-17T23:17:46.565Z,94.80
2024-02-17T23:19:49.080Z,94.40
2024-02-17T23:21:51.461Z,94.60
2024-02-17T23:23:53.485Z,94.80
2024-02-17T23:25:55.413Z,94.50
2024-02-17T23:27:57.917Z,94.20
2024-02-17T23:30:01.615Z,94.40
2024-02-17T23:32:03.953Z,94.10
2024-02-17T23:34:06.024Z,94.40
2024-02-17T23:36:11.544Z,94.50
2024-02-17T23:38:13.761Z,94.40
2024-02-17T23:40:16.132Z,94.20
2024-02-17T23:42:18.333Z,94.50
2024-02-17T23:44:21.551Z,94.40
2024-02-17T23:46:24.983Z,94.30
2024-02-17T23:48:27.155Z,94.20
2024-02-17T23:50:31.538Z,94.60
2024-02-17T23:52:33.593Z,94.50
2024-02-17T23:54:36.803Z,94.70
2024-02-17T23:56:41.539Z,94.70
2024-02-17T23:58:43.510Z,95.10
